Time;durP1;ratioP1;P1;durP2;ratioP2;P2;SDS_P1;SDS_P2;PMS_P1;PMS_P2;Temp;Humidity;BMP_temperature;BMP_pressure;BME280_temperature;BME280_humidity;BME280_pressure;Samples;Min_cycle;Max_cycle;Signal;HPM_P1;HPM_P2
2023/09/22 00:02:23;;;;;;;9.60;4.25;;;20.60;67.90;;;;;;4866102;29;20072;-94
2023/09/22 00:04:50;;;;;;;10.20;3.60;;;20.50;68.10;;;;;;4881237;29;20049;-96
2023/09/22 00:07:18;;;;;;;14.68;5.00;;;20.50;68.20;;;;;;4881907;29;20139;-92
2023/09/22 00:09:45;;;;;;;10.15;4.35;;;20.40;68.30;;;;;;4881737;29;20060;-92
2023/09/22 00:12:12;;;;;;;10.07;4.75;;;20.50;68.30;;;;;;4881882;29;20049;-91
2023/09/22 00:14:40;;;;;;;12.10;5.15;;;20.40;68.20;;;;;;4866327;29;20045;-91
2023/09/22 00:17:07;;;;;;;11.33;4.80;;;20.50;68.50;;;;;;4866934;29;20057;-92
2023/09/22 00:19:35;;;;;;;10.90;5.18;;;20.50;68.40;;;;;;4881863;29;20057;-92
2023/09/22 00:22:03;;;;;;;11.02;5.57;;;20.50;68.50;;;;;;4866704;29;20471;-92
2023/09/22 00:24:30;;;;;;;13.23;5.03;;;20.50;68.50;;;;;;4882390;29;20041;-91
2023/09/22 00:26:57;;;;;;;12.60;5.57;;;20.50;68.50;;;;;;4866737;29;20468;-91
2023/09/22 00:29:25;;;;;;;10.63;5.13;;;20.50;68.60;;;;;;4881765;29;20079;-91
2023/09/22 00:31:52;;;;;;;12.98;5.25;;;20.50;68.60;;;;;;4865877;29;20057;-91
2023/09/22 00:34:19;;;;;;;13.90;5.80;;;20.50;68.40;;;;;;4881235;29;20049;-91
2023/09/22 00:36:48;;;;;;;12.48;5.28;;;20.50;68.40;;;;;;4880957;29;20088;-91
2023/09/22 00:39:17;;;;;;;13.50;5.63;;;20.50;68.60;;;;;;4866572;29;20070;-92
2023/09/22 00:41:44;;;;;;;12.53;5.67;;;20.50;68.70;;;;;;4881532;29;20121;-92
2023/09/22 00:44:11;;;;;;;11.38;5.75;;;20.50;68.70;;;;;;4865621;29;20053;-92
2023/09/22 00:46:39;;;;;;;12.80;5.40;;;20.50;68.60;;;;;;4881290;29;20393;-91
2023/09/22 00:49:07;;;;;;;12.07;5.85;;;20.50;68.70;;;;;;4880943;29;20084;-92
2023/09/22 00:51:38;;;;;;;13.38;6.45;;;20.50;68.70;;;;;;4865645;29;20072;-92
2023/09/22 00:54:09;;;;;;;13.10;5.77;;;20.50;68.60;;;;;;4880784;29;20052;-90
2023/09/22 00:56:37;;;;;;;13.32;5.60;;;20.50;68.80;;;;;;4880933;29;20073;-91
2023/09/22 00:59:05;;;;;;;11.88;5.70;;;20.50;68.80;;;;;;4865098;29;20045;-91
2023/09/22 01:01:34;;;;;;;14.80;5.65;;;20.50;68.70;;;;;;4880229;29;20473;-91
2023/09/22 01:04:03;;;;;;;12.13;5.40;;;20.50;68.40;;;;;;4865558;29;20071;-91
2023/09/22 01:06:32;;;;;;;13.17;4.97;;;20.50;68.60;;;;;;4865044;29;20048;-91
2023/09/22 01:09:05;;;;;;;14.55;5.20;;;20.50;68.40;;;;;;4880495;29;20499;-91
2023/09/22 01:11:35;;;;;;;12.63;5.28;;;20.60;68.20;;;;;;4880536;29;20086;-91
2023/09/22 01:14:03;;;;;;;8.45;4.20;;;20.60;68.30;;;;;;4865639;29;20049;-92
2023/09/22 01:16:30;;;;;;;11.15;4.78;;;20.60;67.80;;;;;;4880149;29;20052;-92
2023/09/22 01:18:58;;;;;;;11.30;4.37;;;20.60;67.70;;;;;;4880189;29;20059;-91
2023/09/22 01:21:28;;;;;;;13.90;4.53;;;20.60;67.60;;;;;;4865388;29;20049;-92
2023/09/22 01:23:56;;;;;;;12.05;4.90;;;20.60;67.90;;;;;;4880611;29;20049;-93
2023/09/22 01:26:25;;;;;;;12.85;4.70;;;20.60;67.70;;;;;;4865614;29;20052;-92
2023/09/22 01:28:52;;;;;;;11.10;4.50;;;20.60;67.70;;;;;;4865729;29;20057;-92
2023/09/22 01:31:21;;;;;;;12.07;4.67;;;20.60;67.80;;;;;;4865435;29;20053;-92
2023/09/22 01:33:48;;;;;;;9.95;4.40;;;20.60;67.80;;;;;;4880948;29;20571;-92
2023/09/22 01:36:16;;;;;;;10.63;4.32;;;20.50;67.70;;;;;;4864580;29;20064;-92
2023/09/22 01:38:44;;;;;;;10.73;3.92;;;20.60;67.50;;;;;;4880374;29;20052;-92
2023/09/22 01:41:12;;;;;;;10.68;4.65;;;20.60;67.20;;;;;;4864862;29;20589;-92
2023/09/22 01:43:39;;;;;;;9.13;3.77;;;20.60;67.30;;;;;;4880466;29;20044;-91
2023/09/22 01:46:06;;;;;;;9.98;4.10;;;20.60;67.10;;;;;;4880113;29;20144;-92
2023/09/22 01:48:34;;;;;;;13.57;4.32;;;20.60;66.90;;;;;;4864740;29;20049;-92
2023/09/22 01:51:02;;;;;;;10.05;4.22;;;20.60;66.70;;;;;;4864414;29;20488;-92
2023/09/22 01:53:29;;;;;;;12.18;4.43;;;20.60;66.90;;;;;;4864628;29;20061;-92
2023/09/22 01:55:57;;;;;;;11.57;3.93;;;20.60;67.20;;;;;;4865000;29;20049;-92
2023/09/22 01:58:24;;;;;;;13.23;3.72;;;20.50;66.90;;;;;;4865068;29;20083;-91
2023/09/22 02:00:52;;;;;;;10.00;3.92;;;20.50;66.60;;;;;;4865766;29;20097;-92
2023/09/22 02:03:19;;;;;;;12.73;3.38;;;20.50;67.20;;;;;;4880276;29;20499;-91
2023/09/22 02:05:46;;;;;;;11.00;3.72;;;20.50;66.50;;;;;;4864237;29;20045;-92
2023/09/22 02:08:14;;;;;;;12.37;3.90;;;20.50;66.30;;;;;;4880183;29;20117;-92
2023/09/22 02:10:41;;;;;;;12.07;3.50;;;20.50;66.20;;;;;;4864487;29;20087;-93
2023/09/22 02:13:09;;;;;;;11.57;3.88;;;20.60;66.00;;;;;;4864567;29;20045;-92
2023/09/22 02:15:36;;;;;;;9.15;3.25;;;20.50;65.80;;;;;;4879715;29;20045;-93
2023/09/22 02:18:04;;;;;;;11.43;3.50;;;20.60;65.50;;;;;;4865072;29;20064;-92
2023/09/22 02:20:32;;;;;;;10.07;2.90;;;20.50;65.60;;;;;;4880183;29;20467;-92
2023/09/22 02:22:59;;;;;;;9.30;2.78;;;20.50;65.30;;;;;;4864130;29;20381;-93
2023/09/22 02:25:26;;;;;;;9.45;2.80;;;20.50;65.40;;;;;;4864618;29;20049;-93
2023/09/22 02:27:55;;;;;;;9.80;2.83;;;20.50;65.30;;;;;;4881384;29;20140;-92
2023/09/22 02:30:23;;;;;;;7.88;2.80;;;20.40;65.20;;;;;;4868477;29;20057;-91
2023/09/22 02:32:54;;;;;;;8.83;2.30;;;20.40;65.10;;;;;;4883326;29;20052;-91
2023/09/22 02:35:22;;;;;;;10.02;3.10;;;20.40;65.10;;;;;;4867979;29;20159;-92
2023/09/22 02:37:49;;;;;;;9.93;2.75;;;20.40;65.20;;;;;;4883350;29;20063;-92
2023/09/22 02:40:20;;;;;;;8.52;2.83;;;20.50;64.70;;;;;;4883757;29;20109;-91
2023/09/22 02:42:47;;;;;;;8.02;2.70;;;20.40;64.70;;;;;;4883157;29;20049;-92
2023/09/22 02:45:15;;;;;;;6.73;2.50;;;20.40;64.70;;;;;;4867795;29;20052;-92
2023/09/22 02:47:45;;;;;;;10.98;3.40;;;20.40;64.80;;;;;;4883041;29;20056;-91
2023/09/22 02:50:17;;;;;;;10.98;3.08;;;20.40;65.00;;;;;;4867713;29;20053;-92
2023/09/22 02:52:44;;;;;;;12.55;3.22;;;20.50;65.30;;;;;;4868063;29;20052;-92
2023/09/22 02:55:13;;;;;;;10.05;3.28;;;20.40;65.20;;;;;;4867977;29;20064;-91
2023/09/22 02:57:45;;;;;;;9.87;2.80;;;20.40;65.10;;;;;;4883348;29;20049;-91
2023/09/22 03:00:22;;;;;;;9.75;3.30;;;20.30;65.60;;;;;;4883602;29;20053;-91
2023/09/22 03:02:50;;;;;;;12.25;3.20;;;20.30;65.60;;;;;;4868319;29;20049;-91
2023/09/22 03:05:18;;;;;;;10.50;3.03;;;20.30;65.20;;;;;;4883715;29;20136;-92
2023/09/22 03:07:52;;;;;;;8.63;2.63;;;20.20;65.60;;;;;;4868571;29;20049;-91
2023/09/22 03:10:21;;;;;;;8.83;2.80;;;20.10;65.70;;;;;;4867745;29;20423;-91
2023/09/22 03:12:53;;;;;;;9.02;2.83;;;20.10;65.80;;;;;;4867751;29;20144;-91
2023/09/22 03:15:22;;;;;;;12.45;2.75;;;20.10;66.10;;;;;;4883475;29;20140;-91
2023/09/22 03:17:52;;;;;;;8.95;2.40;;;20.10;66.30;;;;;;4886225;29;20044;-90
2023/09/22 03:20:19;;;;;;;10.50;2.50;;;20.00;66.50;;;;;;4882904;29;20071;-90
2023/09/22 03:22:47;;;;;;;7.90;2.23;;;20.00;66.50;;;;;;4867366;29;20080;-91
2023/09/22 03:25:15;;;;;;;8.63;1.90;;;20.00;66.70;;;;;;4867771;29;20464;-91
2023/09/22 03:27:43;;;;;;;8.50;2.13;;;20.00;66.50;;;;;;4866926;29;20053;-92
2023/09/22 03:30:13;;;;;;;7.80;2.00;;;19.90;66.80;;;;;;4867368;29;20060;-93
2023/09/22 03:32:42;;;;;;;8.68;2.45;;;19.90;67.10;;;;;;4882175;29;20049;-91
2023/09/22 03:35:13;;;;;;;8.63;2.30;;;19.90;67.00;;;;;;4882692;29;20049;-91
2023/09/22 03:37:41;;;;;;;7.50;2.33;;;19.90;67.10;;;;;;4866965;29;20057;-92
2023/09/22 03:40:10;;;;;;;10.23;2.40;;;19.90;67.20;;;;;;4882054;29;20504;-92
2023/09/22 03:42:43;;;;;;;7.05;1.92;;;19.90;67.30;;;;;;4867640;29;20045;-92
2023/09/22 03:45:12;;;;;;;5.30;1.80;;;19.90;67.30;;;;;;4882107;29;20049;-93
2023/09/22 03:47:40;;;;;;;11.53;2.10;;;19.80;67.40;;;;;;4866835;29;20077;-92
2023/09/22 03:50:08;;;;;;;6.60;2.03;;;19.80;67.50;;;;;;4866563;29;20049;-93
2023/09/22 03:52:36;;;;;;;7.07;1.83;;;19.80;67.30;;;;;;4882488;29;20083;-92
2023/09/22 03:55:05;;;;;;;9.35;2.00;;;19.90;67.30;;;;;;4867004;29;20097;-94
2023/09/22 03:57:33;;;;;;;7.10;2.55;;;19.90;67.50;;;;;;4884489;29;20109;-95
2023/09/22 04:00:01;;;;;;;10.53;2.97;;;19.90;67.50;;;;;;4868736;29;20048;-92
2023/09/22 04:02:39;;;;;;;12.10;4.05;;;19.90;67.60;;;;;;4886137;29;20079;-91
2023/09/22 04:05:08;;;;;;;8.73;3.35;;;19.90;67.50;;;;;;4881611;29;20488;-92
2023/09/22 04:07:35;;;;;;;9.60;3.00;;;20.00;67.40;;;;;;4866441;29;20180;-91
2023/09/22 04:10:03;;;;;;;10.48;3.10;;;20.00;67.40;;;;;;4881575;29;20562;-92
2023/09/22 04:12:31;;;;;;;10.60;2.63;;;19.90;67.60;;;;;;4881947;29;20144;-91
2023/09/22 04:14:59;;;;;;;12.45;2.75;;;19.90;67.70;;;;;;4866827;29;20057;-90
2023/09/22 04:17:27;;;;;;;10.32;3.20;;;19.90;68.00;;;;;;4882046;29;20048;-90
2023/09/22 04:19:54;;;;;;;9.52;3.50;;;19.80;68.00;;;;;;4866478;29;20044;-90
2023/09/22 04:22:21;;;;;;;11.65;3.15;;;19.80;68.20;;;;;;4866630;29;20045;-91
2023/09/22 04:24:51;;;;;;;11.10;3.03;;;19.80;68.20;;;;;;4881796;29;20097;-92
2023/09/22 04:27:18;;;;;;;19.30;3.42;;;19.80;68.20;;;;;;4866861;29;20056;-91
2023/09/22 04:29:47;;;;;;;15.18;3.63;;;19.80;68.20;;;;;;4866996;29;20045;-92
2023/09/22 04:32:14;;;;;;;9.38;2.95;;;19.80;68.40;;;;;;4866672;29;20057;-92
2023/09/22 04:34:43;;;;;;;11.50;3.03;;;19.80;68.10;;;;;;4882255;29;20084;-96
2023/09/22 04:37:10;;;;;;;10.47;2.97;;;19.80;68.20;;;;;;4871172;29;20053;-96
2023/09/22 04:39:38;;;;;;;11.20;2.92;;;19.90;68.00;;;;;;4868697;29;20057;-95
2023/09/22 04:42:05;;;;;;;11.35;3.00;;;19.90;67.80;;;;;;4882193;29;20053;-95
2023/09/22 04:44:32;;;;;;;13.60;3.40;;;19.90;67.80;;;;;;4867767;29;20131;-96
2023/09/22 04:47:00;;;;;;;34.65;11.25;;;19.90;68.00;;;;;;4884417;29;20084;-95
2023/09/22 04:49:27;;;;;;;38.93;14.43;;;19.90;67.90;;;;;;4882149;29;20073;-95
2023/09/22 04:51:54;;;;;;;41.33;14.73;;;19.90;67.90;;;;;;4881492;29;20056;-96
2023/09/22 04:54:21;;;;;;;43.28;16.05;;;20.00;67.90;;;;;;4881659;29;20073;-95
2023/09/22 04:56:48;;;;;;;19.35;5.68;;;20.00;68.10;;;;;;4881551;29;20056;-95
2023/09/22 04:59:18;;;;;;;16.85;5.00;;;20.00;67.80;;;;;;4881721;29;20570;-95
2023/09/22 05:01:45;;;;;;;25.30;5.90;;;20.00;67.70;;;;;;4866110;29;20147;-94
2023/09/22 05:04:13;;;;;;;17.88;5.03;;;20.10;67.90;;;;;;4881749;29;20088;-95
2023/09/22 05:06:43;;;;;;;15.70;4.35;;;20.10;67.90;;;;;;4866366;29;20069;-95
2023/09/22 05:09:11;;;;;;;14.10;3.35;;;20.10;67.80;;;;;;4881320;29;20063;-95
2023/09/22 05:11:39;;;;;;;16.67;4.20;;;20.10;67.80;;;;;;4866256;29;20053;-96
2023/09/22 05:14:06;;;;;;;12.90;2.97;;;20.10;68.00;;;;;;4882156;29;20080;-96
2023/09/22 05:16:34;;;;;;;12.77;3.00;;;20.10;67.90;;;;;;4975391;24;20057;-93
2023/09/22 05:19:01;;;;;;;8.38;2.88;;;20.10;68.00;;;;;;4862818;29;20145;-93
2023/09/22 05:21:28;;;;;;;10.27;2.50;;;20.10;67.90;;;;;;4847500;29;20543;-92
2023/09/22 05:23:56;;;;;;;10.52;2.83;;;20.10;67.60;;;;;;4847417;29;20091;-92
2023/09/22 05:26:23;;;;;;;11.37;2.97;;;20.10;67.90;;;;;;4847451;29;20059;-91
2023/09/22 05:28:50;;;;;;;8.07;2.20;;;20.10;68.20;;;;;;4847489;29;20046;-93
2023/09/22 05:31:19;;;;;;;9.02;2.30;;;20.10;67.60;;;;;;4847010;29;20057;-93
2023/09/22 05:33:47;;;;;;;8.85;2.10;;;20.10;67.60;;;;;;4847472;29;20088;-93
2023/09/22 05:36:14;;;;;;;6.15;2.00;;;20.10;67.30;;;;;;4847437;29;20057;-94
2023/09/22 05:38:41;;;;;;;8.77;2.00;;;20.10;67.60;;;;;;4847182;29;20144;-93
2023/09/22 05:41:09;;;;;;;10.85;2.10;;;20.10;67.70;;;;;;4862123;29;20053;-92
2023/09/22 05:43:36;;;;;;;9.95;3.47;;;20.20;67.70;;;;;;4847335;29;20412;-93
2023/09/22 05:46:03;;;;;;;7.15;2.10;;;20.20;67.50;;;;;;4846999;29;20042;-94
2023/09/22 05:48:31;;;;;;;9.00;2.30;;;20.30;67.80;;;;;;4847029;29;20053;-93
2023/09/22 05:51:00;;;;;;;6.83;2.37;;;20.40;67.70;;;;;;4846473;29;20092;-92
2023/09/22 05:53:28;;;;;;;15.07;2.85;;;20.50;67.10;;;;;;4846443;29;20053;-93
2023/09/22 05:56:07;;;;;;;11.48;2.03;;;20.50;67.20;;;;;;4846529;29;20054;-93
2023/09/22 05:58:39;;;;;;;11.27;2.50;;;20.60;66.90;;;;;;4861356;29;20143;-95
2023/09/22 06:01:13;;;;;;;10.30;2.72;;;20.60;66.70;;;;;;4846421;29;20054;-93
2023/09/22 06:03:44;;;;;;;10.70;2.50;;;20.70;66.90;;;;;;4847172;29;20394;-93
2023/09/22 06:06:13;;;;;;;6.80;2.17;;;20.80;66.10;;;;;;4861769;29;20042;-94
2023/09/22 06:08:42;;;;;;;9.52;2.10;;;20.80;66.30;;;;;;4861732;29;20480;-93
2023/09/22 06:11:10;;;;;;;10.63;2.55;;;20.80;66.40;;;;;;4846314;29;20084;-92
2023/09/22 06:13:38;;;;;;;11.18;2.92;;;20.90;65.80;;;;;;4846303;29;20060;-92
2023/09/22 06:16:06;;;;;;;13.20;3.00;;;21.00;66.30;;;;;;4846093;29;20061;-92
2023/09/22 06:18:34;;;;;;;10.38;3.05;;;21.00;65.80;;;;;;4861419;29;20106;-92
2023/09/22 06:21:02;;;;;;;14.98;3.70;;;21.00;66.40;;;;;;4861558;29;20576;-93
2023/09/22 06:23:30;;;;;;;11.15;2.70;;;21.10;65.50;;;;;;4861409;29;20092;-93
2023/09/22 06:26:02;;;;;;;12.65;3.38;;;21.20;65.40;;;;;;4846090;29;20572;-92
2023/09/22 06:28:30;;;;;;;13.87;3.50;;;21.30;65.50;;;;;;4861280;29;20056;-92
2023/09/22 06:31:01;;;;;;;11.00;3.10;;;21.40;65.60;;;;;;4861216;29;20144;-93
2023/09/22 06:33:32;;;;;;;11.40;3.35;;;21.60;64.90;;;;;;4861213;29;20096;-93
2023/09/22 06:36:01;;;;;;;12.55;2.72;;;21.80;64.50;;;;;;4861183;29;20401;-93
2023/09/22 06:38:29;;;;;;;11.85;2.85;;;21.90;63.50;;;;;;4845865;29;20121;-93
2023/09/22 06:40:56;;;;;;;7.27;2.10;;;22.00;63.90;;;;;;4845764;29;20113;-92
2023/09/22 06:43:24;;;;;;;11.55;2.45;;;22.10;63.90;;;;;;4846015;29;20056;-92
2023/09/22 06:45:52;;;;;;;8.38;1.90;;;22.30;63.30;;;;;;4845746;29;20098;-93
2023/09/22 06:48:22;;;;;;;11.25;3.00;;;22.50;62.90;;;;;;4845716;29;20101;-93
2023/09/22 06:50:51;;;;;;;11.68;2.63;;;22.70;61.80;;;;;;4860936;29;20081;-93
2023/09/22 06:53:19;;;;;;;13.23;2.73;;;22.80;61.80;;;;;;4861058;29;20500;-92
2023/09/22 06:55:47;;;;;;;14.93;3.17;;;22.80;61.40;;;;;;4861103;29;20061;-92
2023/09/22 06:58:14;;;;;;;13.00;2.70;;;22.80;61.20;;;;;;4846805;29;20053;-92
2023/09/22 07:00:41;;;;;;;9.70;2.22;;;22.80;62.10;;;;;;4845900;29;20092;-93
2023/09/22 07:03:09;;;;;;;18.08;2.65;;;22.60;61.30;;;;;;4846554;29;20078;-92
2023/09/22 07:05:36;;;;;;;11.07;3.00;;;22.50;62.40;;;;;;4846439;29;20053;-93
2023/09/22 07:08:04;;;;;;;13.43;2.47;;;22.30;62.70;;;;;;4861481;29;20137;-92
2023/09/22 07:10:33;;;;;;;12.07;2.45;;;22.20;62.90;;;;;;4861614;29;20054;-92
2023/09/22 07:13:01;;;;;;;29.80;4.50;;;22.10;63.10;;;;;;4845990;29;20053;-92
2023/09/22 07:15:29;;;;;;;20.95;3.83;;;22.10;63.40;;;;;;4849823;29;20547;-95
2023/09/22 07:17:56;;;;;;;19.93;3.90;;;22.10;63.10;;;;;;4864721;29;20046;-92
2023/09/22 07:20:23;;;;;;;10.80;2.42;;;22.10;63.90;;;;;;4864597;29;20050;-93
2023/09/22 07:22:50;;;;;;;12.35;2.20;;;22.30;63.70;;;;;;4850124;29;20057;-93
2023/09/22 07:25:18;;;;;;;12.60;2.40;;;22.50;63.30;;;;;;4849248;29;20144;-94
2023/09/22 07:27:45;;;;;;;12.40;2.47;;;22.50;63.30;;;;;;4848953;29;20047;-93
2023/09/22 07:30:12;;;;;;;12.57;2.53;;;22.60;63.00;;;;;;4848689;29;20152;-93
2023/09/22 07:32:40;;;;;;;10.23;2.28;;;22.80;63.40;;;;;;4848806;29;20053;-93
2023/09/22 07:35:07;;;;;;;11.77;2.20;;;22.80;62.10;;;;;;4848470;29;20512;-93
2023/09/22 07:37:34;;;;;;;10.40;2.10;;;22.80;62.70;;;;;;4848726;29;20057;-93
2023/09/22 07:40:08;;;;;;;12.68;2.10;;;22.70;62.80;;;;;;4848752;29;20071;-93
2023/09/22 07:42:38;;;;;;;9.13;1.97;;;22.60;62.00;;;;;;4864165;29;20088;-94
2023/09/22 07:45:07;;;;;;;9.18;1.67;;;22.50;62.40;;;;;;4848929;29;20050;-94
2023/09/22 07:47:34;;;;;;;9.32;2.10;;;22.50;62.60;;;;;;4863845;29;20068;-94
2023/09/22 07:50:03;;;;;;;10.18;2.13;;;22.50;63.20;;;;;;4848413;29;20049;-93
2023/09/22 07:52:30;;;;;;;11.43;1.80;;;22.60;62.10;;;;;;4848686;29;20050;-95
2023/09/22 07:54:59;;;;;;;12.90;2.00;;;22.70;61.90;;;;;;4848987;29;20093;-93
2023/09/22 07:57:31;;;;;;;10.75;1.92;;;22.80;62.90;;;;;;4848718;29;20092;-94
2023/09/22 07:59:58;;;;;;;9.52;2.20;;;23.00;62.50;;;;;;4864146;29;20151;-93
2023/09/22 08:02:25;;;;;;;9.80;1.98;;;23.10;61.20;;;;;;4848708;29;20053;-94
2023/09/22 08:04:53;;;;;;;9.30;2.05;;;23.20;62.20;;;;;;4863594;29;20079;-94
2023/09/22 08:07:20;;;;;;;9.70;2.13;;;23.30;62.30;;;;;;4848031;29;20080;-93
2023/09/22 08:09:47;;;;;;;8.38;2.17;;;23.50;61.40;;;;;;4849000;29;20509;-94
2023/09/22 08:12:14;;;;;;;8.70;1.92;;;23.50;60.70;;;;;;4848112;29;20154;-93
2023/09/22 08:14:41;;;;;;;12.48;2.15;;;23.60;60.70;;;;;;4848441;29;20050;-93
2023/09/22 08:17:23;;;;;;;5.88;1.58;;;23.60;59.90;;;;;;4851617;29;20061;-95
2023/09/22 08:19:51;;;;;;;6.70;1.80;;;23.60;59.90;;;;;;4849540;29;20059;-95
2023/09/22 08:22:18;;;;;;;6.50;1.42;;;23.60;60.40;;;;;;4864844;29;20416;-96
2023/09/22 08:24:46;;;;;;;6.68;1.42;;;23.60;60.60;;;;;;4848504;29;20052;-96
2023/09/22 08:27:14;;;;;;;9.85;1.63;;;23.80;61.70;;;;;;4863749;29;20412;-94
2023/09/22 08:29:41;;;;;;;9.15;1.85;;;23.90;60.50;;;;;;4864616;29;20050;-95
2023/09/22 08:32:09;;;;;;;7.70;1.70;;;23.80;60.70;;;;;;4849647;29;20053;-95
2023/09/22 08:34:38;;;;;;;9.23;1.48;;;23.90;59.80;;;;;;4849298;29;20125;-95
2023/09/22 08:37:06;;;;;;;6.07;1.60;;;24.00;60.10;;;;;;4849632;29;20122;-96
2023/09/22 08:39:33;;;;;;;8.82;1.70;;;24.10;59.90;;;;;;4850017;29;20041;-96
2023/09/22 08:42:01;;;;;;;8.70;1.60;;;24.10;59.50;;;;;;4850926;29;20567;-96
2023/09/22 08:44:30;;;;;;;7.07;1.73;;;24.10;59.60;;;;;;4849255;29;20046;-96
2023/09/22 08:46:57;;;;;;;9.35;2.13;;;24.10;58.20;;;;;;4848218;29;20053;-96
2023/09/22 08:49:26;;;;;;;10.40;1.88;;;24.20;59.10;;;;;;4848245;29;20053;-96
2023/09/22 08:51:56;;;;;;;10.02;2.33;;;24.10;59.10;;;;;;4848393;29;20064;-96
2023/09/22 08:54:24;;;;;;;9.55;1.60;;;24.20;59.30;;;;;;4863882;29;20125;-96
2023/09/22 08:56:51;;;;;;;7.90;1.87;;;24.10;58.50;;;;;;4847674;29;20053;-95
2023/09/22 08:59:18;;;;;;;13.45;2.53;;;24.10;59.40;;;;;;4864095;29;20152;-96
2023/09/22 09:01:45;;;;;;;9.68;1.63;;;24.20;58.70;;;;;;4848684;29;20059;-95
2023/09/22 09:04:31;;;;;;;9.80;2.15;;;24.30;58.10;;;;;;4847935;29;20140;-96
2023/09/22 09:06:58;;;;;;;9.43;2.95;;;24.40;59.60;;;;;;4864063;29;20113;-95
2023/09/22 09:09:25;;;;;;;10.47;2.30;;;24.50;58.80;;;;;;4863577;29;20049;-95
2023/09/22 09:12:00;;;;;;;10.48;2.10;;;24.50;58.40;;;;;;4848457;29;20077;-96
2023/09/22 09:14:28;;;;;;;12.73;2.53;;;24.60;58.90;;;;;;4848792;29;20069;-94
2023/09/22 09:16:58;;;;;;;14.13;3.35;;;24.60;58.50;;;;;;4862774;29;20106;-95
2023/09/22 09:19:30;;;;;;;10.95;2.85;;;24.40;58.50;;;;;;4863169;29;20239;-95
2023/09/22 09:22:12;;;;;;;12.70;2.17;;;24.50;58.70;;;;;;4847824;29;20046;-95
2023/09/22 09:24:41;;;;;;;9.05;2.10;;;24.40;59.60;;;;;;4848904;29;20508;-95
2023/09/22 09:27:19;;;;;;;9.68;2.50;;;24.50;58.70;;;;;;4847561;29;20136;-94
2023/09/22 09:29:46;;;;;;;9.02;2.35;;;24.40;59.10;;;;;;4847891;29;20064;-96
2023/09/22 09:32:26;;;;;;;11.07;2.50;;;24.30;59.10;;;;;;4848074;29;20052;-96
2023/09/22 09:34:54;;;;;;;12.93;3.33;;;24.40;59.70;;;;;;4864198;29;20053;-96
2023/09/22 09:37:22;;;;;;;11.13;2.58;;;24.40;58.80;;;;;;4848943;29;20572;-96
2023/09/22 09:39:54;;;;;;;9.25;2.47;;;24.50;59.50;;;;;;4863219;29;20057;-96
2023/09/22 09:42:25;;;;;;;7.82;1.90;;;24.50;59.40;;;;;;4847830;29;20053;-96
2023/09/22 09:44:56;;;;;;;9.23;2.00;;;24.60;59.50;;;;;;4848387;29;20046;-95
2023/09/22 09:47:24;;;;;;;13.37;3.30;;;24.70;60.00;;;;;;4864031;29;20045;-95
2023/09/22 09:49:57;;;;;;;15.57;3.58;;;24.60;59.00;;;;;;4863717;29;20053;-95
2023/09/22 09:52:33;;;;;;;13.90;3.17;;;24.70;59.00;;;;;;4847404;29;20050;-96
2023/09/22 09:55:14;;;;;;;9.00;2.30;;;24.70;58.60;;;;;;4847958;29;20050;-95
2023/09/22 09:57:45;;;;;;;9.35;2.05;;;24.80;58.10;;;;;;4847295;29;20505;-95
2023/09/22 10:00:19;;;;;;;8.97;2.47;;;24.80;58.90;;;;;;4863116;29;20096;-96
2023/09/22 10:02:49;;;;;;;11.88;2.00;;;24.90;59.20;;;;;;4847411;29;20136;-96
2023/09/22 10:05:21;;;;;;;6.32;2.10;;;24.90;59.00;;;;;;4862434;29;20053;-95
2023/09/22 10:07:56;;;;;;;10.82;2.30;;;24.90;59.10;;;;;;4846681;29;20049;-93
2023/09/22 10:10:24;;;;;;;12.73;2.75;;;24.90;58.40;;;;;;4846680;29;20428;-95
2023/09/22 10:12:51;;;;;;;12.90;2.87;;;24.80;58.70;;;;;;4846949;29;20057;-95
2023/09/22 10:15:50;;;;;;;10.18;2.92;;;24.70;58.10;;;;;;4847662;29;20060;-96
2023/09/22 10:18:18;;;;;;;11.35;2.75;;;24.70;59.10;;;;;;4862070;29;20138;-96
2023/09/22 10:20:46;;;;;;;11.50;3.20;;;24.80;60.10;;;;;;4862270;29;20060;-95
2023/09/22 10:23:22;;;;;;;9.27;2.05;;;24.80;58.50;;;;;;4846811;29;20145;-96
2023/09/22 10:26:05;;;;;;;7.03;1.70;;;24.80;58.20;;;;;;4847345;29;20102;-94
2023/09/22 10:28:32;;;;;;;9.95;2.00;;;24.70;57.30;;;;;;4847108;29;20054;-96
2023/09/22 10:30:59;;;;;;;17.55;3.00;;;24.60;58.50;;;;;;4861581;29;20077;-95
2023/09/22 10:33:27;;;;;;;7.18;2.20;;;24.70;58.70;;;;;;4847431;29;20053;-96
2023/09/22 10:35:54;;;;;;;10.90;2.55;;;24.80;58.70;;;;;;4846857;29;20084;-95
2023/09/22 10:38:21;;;;;;;6.63;1.73;;;24.80;57.30;;;;;;4862117;29;20079;-96
2023/09/22 10:41:01;;;;;;;6.53;2.00;;;24.90;58.10;;;;;;4847187;29;20121;-95
2023/09/22 10:43:29;;;;;;;6.43;1.60;;;24.90;57.10;;;;;;4846516;29;20125;-95
2023/09/22 10:45:56;;;;;;;7.28;1.70;;;25.00;57.70;;;;;;4847136;29;20507;-96
2023/09/22 10:48:35;;;;;;;8.02;1.90;;;25.00;56.00;;;;;;4847335;29;20476;-96
2023/09/22 10:51:03;;;;;;;11.47;1.90;;;24.90;57.50;;;;;;4850330;29;20140;-96
2023/09/22 10:53:32;;;;;;;10.48;1.88;;;25.00;56.90;;;;;;4850328;29;20097;-94
2023/09/22 10:56:02;;;;;;;7.75;1.92;;;25.00;57.70;;;;;;4849959;29;20588;-96
2023/09/22 10:58:30;;;;;;;9.50;1.88;;;25.10;57.10;;;;;;4850018;29;20511;-95
2023/09/22 11:01:04;;;;;;;6.90;2.25;;;25.20;57.20;;;;;;4849612;29;20136;-96
2023/09/22 11:03:39;;;;;;;7.50;1.80;;;25.40;56.90;;;;;;4849783;29;20139;-94
2023/09/22 11:06:06;;;;;;;12.30;2.05;;;25.60;56.50;;;;;;4849588;29;20053;-95
2023/09/22 11:08:47;;;;;;;11.45;2.63;;;25.70;54.60;;;;;;4849568;29;20046;-96
2023/09/22 11:11:16;;;;;;;9.48;1.90;;;25.80;55.80;;;;;;4849665;29;20060;-95
2023/09/22 11:13:51;;;;;;;8.63;1.90;;;25.90;54.00;;;;;;4864686;29;20420;-96
2023/09/22 11:16:20;;;;;;;11.00;2.03;;;25.90;54.20;;;;;;4849491;29;20061;-95
2023/09/22 11:18:50;;;;;;;9.15;2.17;;;25.80;54.40;;;;;;4849531;29;20061;-95
2023/09/22 11:21:20;;;;;;;10.32;2.67;;;25.70;55.20;;;;;;4849198;29;20575;-95
2023/09/22 11:23:47;;;;;;;9.57;2.50;;;25.60;56.80;;;;;;4849420;29;20053;-93
2023/09/22 11:26:14;;;;;;;10.15;2.40;;;25.40;56.30;;;;;;4849242;29;20049;-93
2023/09/22 11:28:44;;;;;;;9.83;2.90;;;25.30;57.20;;;;;;4849252;29;20488;-93
2023/09/22 11:31:19;;;;;;;14.23;2.42;;;25.30;57.40;;;;;;4849221;29;20045;-93
2023/09/22 11:34:01;;;;;;;11.65;3.00;;;25.40;56.90;;;;;;4849046;29;20540;-94
2023/09/22 11:36:44;;;;;;;12.98;2.70;;;25.60;57.90;;;;;;4849282;29;20097;-93
2023/09/22 11:39:24;;;;;;;13.45;4.70;;;25.80;56.60;;;;;;4849179;29;20158;-93
2023/09/22 11:41:51;;;;;;;19.97;6.77;;;25.80;55.30;;;;;;4848972;29;20049;-93
2023/09/22 11:44:19;;;;;;;15.05;4.55;;;25.90;55.90;;;;;;4848969;29;20056;-93
2023/09/22 11:46:47;;;;;;;16.25;4.68;;;26.00;55.40;;;;;;4848886;29;20572;-93
2023/09/22 11:49:14;;;;;;;9.00;2.25;;;25.90;55.20;;;;;;4848794;29;20477;-94
2023/09/22 11:51:42;;;;;;;10.35;2.72;;;25.90;55.70;;;;;;4848891;29;20045;-92
2023/09/22 11:54:11;;;;;;;8.33;2.30;;;26.00;56.70;;;;;;4848871;29;20484;-93
2023/09/22 11:56:40;;;;;;;13.25;2.78;;;26.00;55.00;;;;;;4849023;29;20042;-92
2023/09/22 11:59:19;;;;;;;13.60;3.00;;;25.60;55.40;;;;;;4848759;29;20052;-93
2023/09/22 12:01:51;;;;;;;10.18;2.50;;;25.40;56.30;;;;;;4863956;29;20412;-93
2023/09/22 12:04:19;;;;;;;8.27;2.50;;;25.30;58.30;;;;;;4848608;29;20050;-94
2023/09/22 12:06:48;;;;;;;11.97;2.40;;;25.50;57.90;;;;;;4848581;29;20073;-93
2023/09/22 12:09:16;;;;;;;9.18;2.30;;;25.50;58.10;;;;;;4848458;29;20081;-94
2023/09/22 12:11:44;;;;;;;9.55;2.03;;;25.70;58.70;;;;;;4848177;29;20054;-93
2023/09/22 12:14:11;;;;;;;9.90;2.50;;;26.00;58.40;;;;;;4849241;29;20117;-93
2023/09/22 12:16:39;;;;;;;10.73;2.28;;;25.90;57.20;;;;;;4848263;29;20452;-93
2023/09/22 12:19:07;;;;;;;9.47;1.70;;;25.80;56.90;;;;;;4848270;29;20061;-93
2023/09/22 12:21:35;;;;;;;10.48;2.35;;;25.90;57.50;;;;;;4849147;29;20092;-94
2023/09/22 12:24:03;;;;;;;9.35;2.45;;;25.80;57.50;;;;;;4863774;29;20107;-92
2023/09/22 12:26:30;;;;;;;10.10;2.10;;;25.80;57.00;;;;;;4848082;29;20055;-90
2023/09/22 12:29:00;;;;;;;7.20;1.98;;;25.90;57.00;;;;;;4863456;29;20582;-92
2023/09/22 12:31:27;;;;;;;7.93;3.13;;;26.00;58.30;;;;;;4847885;29;20046;-92
2023/09/22 12:33:57;;;;;;;11.20;2.45;;;25.90;57.90;;;;;;4848004;29;20095;-94
2023/09/22 12:36:24;;;;;;;13.20;3.05;;;25.90;56.10;;;;;;4863165;29;20152;-95
2023/09/22 12:38:52;;;;;;;8.70;2.47;;;25.90;56.80;;;;;;4847937;29;20120;-94
2023/09/22 12:41:19;;;;;;;12.52;2.53;;;26.00;56.80;;;;;;4848017;29;20045;-94
2023/09/22 12:43:47;;;;;;;12.30;2.57;;;25.90;57.50;;;;;;4862971;29;20136;-95
2023/09/22 12:46:14;;;;;;;9.50;2.60;;;26.00;57.00;;;;;;4847760;29;20050;-94
2023/09/22 12:48:42;;;;;;;14.00;3.10;;;26.00;57.40;;;;;;4862979;29;20057;-95
2023/09/22 12:51:13;;;;;;;13.25;2.05;;;26.20;55.90;;;;;;4863304;29;20045;-95